sensor_id;sensor_type;location;lat;lon;timestamp;temperature;humidity
20759;DHT22;10539;53.686;9.158;2023-06-01T00:02:21;13.70;99.90
20759;DHT22;10539;53.686;9.158;2023-06-01T00:04:47;13.60;99.90
20759;DHT22;10539;53.686;9.158;2023-06-01T00:07:15;13.60;99.90
20759;DHT22;10539;53.686;9.158;2023-06-01T00:09:41;13.70;99.90
20759;DHT22;10539;53.686;9.158;2023-06-01T00:12:08;13.70;99.90
20759;DHT22;10539;53.686;9.158;2023-06-01T00:14:34;13.70;99.90
20759;DHT22;10539;53.686;9.158;2023-06-01T00:17:00;13.70;99.90
20759;DHT22;10539;53.686;9.158;2023-06-01T00:19:26;13.80;99.90
20759;DHT22;10539;53.686;9.158;2023-06-01T00:21:53;13.80;99.90
20759;DHT22;10539;53.686;9.158;2023-06-01T00:24:20;13.80;99.90
20759;DHT22;10539;53.686;9.158;2023-06-01T00:26:46;13.80;99.90
20759;DHT22;10539;53.686;9.158;2023-06-01T00:29:15;13.80;99.90
20759;DHT22;10539;53.686;9.158;2023-06-01T00:31:41;13.80;99.90
20759;DHT22;10539;53.686;9.158;2023-06-01T00:34:07;13.80;99.90
20759;DHT22;10539;53.686;9.158;2023-06-01T00:36:33;13.80;99.90
20759;DHT22;10539;53.686;9.158;2023-06-01T00:38:59;13.80;99.90
20759;DHT22;10539;53.686;9.158;2023-06-01T00:41:29;13.70;99.90
20759;DHT22;10539;53.686;9.158;2023-06-01T00:43:55;13.70;99.90
20759;DHT22;10539;53.686;9.158;2023-06-01T00:46:21;13.70;99.90
20759;DHT22;10539;53.686;9.158;2023-06-01T00:48:47;13.70;99.90
20759;DHT22;10539;53.686;9.158;2023-06-01T00:51:13;13.70;99.90
20759;DHT22;10539;53.686;9.158;2023-06-01T00:53:41;13.70;99.90
20759;DHT22;10539;53.686;9.158;2023-06-01T00:56:07;13.70;99.90
20759;DHT22;10539;53.686;9.158;2023-06-01T00:58:34;13.70;99.90
20759;DHT22;10539;53.686;9.158;2023-06-01T01:01:00;13.80;99.90
20759;DHT22;10539;53.686;9.158;2023-06-01T01:03:27;13.70;99.90
20759;DHT22;10539;53.686;9.158;2023-06-01T01:11:41;13.80;99.90
20759;DHT22;10539;53.686;9.158;2023-06-01T01:14:22;13.80;99.90
20759;DHT22;10539;53.686;9.158;2023-06-01T01:17:06;13.70;99.90
20759;DHT22;10539;53.686;9.158;2023-06-01T01:19:52;13.70;99.90
20759;DHT22;10539;53.686;9.158;2023-06-01T01:22:38;13.70;99.90
20759;DHT22;10539;53.686;9.158;2023-06-01T01:30:48;13.60;99.90
20759;DHT22;10539;53.686;9.158;2023-06-01T01:33:16;13.70;99.90
20759;DHT22;10539;53.686;9.158;2023-06-01T01:35:43;13.60;99.90
20759;DHT22;10539;53.686;9.158;2023-06-01T01:38:09;13.60;99.90
20759;DHT22;10539;53.686;9.158;2023-06-01T01:40:35;13.60;99.90
20759;DHT22;10539;53.686;9.158;2023-06-01T01:43:01;13.60;99.90
20759;DHT22;10539;53.686;9.158;2023-06-01T01:45:27;13.50;99.90
20759;DHT22;10539;53.686;9.158;2023-06-01T01:48:18;13.50;99.90
20759;DHT22;10539;53.686;9.158;2023-06-01T01:50:52;13.60;99.90
20759;DHT22;10539;53.686;9.158;2023-06-01T01:53:20;13.60;99.90
20759;DHT22;10539;53.686;9.158;2023-06-01T01:55:48;13.60;99.90
20759;DHT22;10539;53.686;9.158;2023-06-01T01:58:15;13.60;99.90
20759;DHT22;10539;53.686;9.158;2023-06-01T02:00:43;13.70;99.90
20759;DHT22;10539;53.686;9.158;2023-06-01T02:03:16;13.70;99.90
20759;DHT22;10539;53.686;9.158;2023-06-01T02:05:42;13.70;99.90
20759;DHT22;10539;53.686;9.158;2023-06-01T02:08:08;13.60;99.90
20759;DHT22;10539;53.686;9.158;2023-06-01T02:10:33;13.50;99.90
20759;DHT22;10539;53.686;9.158;2023-06-01T02:12:59;13.40;99.90
20759;DHT22;10539;53.686;9.158;2023-06-01T02:15:25;13.40;99.90
20759;DHT22;10539;53.686;9.158;2023-06-01T02:17:51;13.40;99.90
20759;DHT22;10539;53.686;9.158;2023-06-01T02:20:17;13.40;99.90
20759;DHT22;10539;53.686;9.158;2023-06-01T02:22:42;13.40;99.90
20759;DHT22;10539;53.686;9.158;2023-06-01T02:25:09;13.40;99.90
20759;DHT22;10539;53.686;9.158;2023-06-01T02:27:34;13.40;99.90
20759;DHT22;10539;53.686;9.158;2023-06-01T02:30:01;13.40;99.90
20759;DHT22;10539;53.686;9.158;2023-06-01T02:32:26;13.40;99.90
20759;DHT22;10539;53.686;9.158;2023-06-01T02:34:52;13.40;99.90
20759;DHT22;10539;53.686;9.158;2023-06-01T02:37:18;13.30;99.90
20759;DHT22;10539;53.686;9.158;2023-06-01T02:39:44;13.30;99.90
20759;DHT22;10539;53.686;9.158;2023-06-01T02:42:09;13.40;99.90
20759;DHT22;10539;53.686;9.158;2023-06-01T02:44:35;13.40;99.90
20759;DHT22;10539;53.686;9.158;2023-06-01T02:47:01;13.40;99.90
20759;DHT22;10539;53.686;9.158;2023-06-01T02:49:27;13.40;99.90
20759;DHT22;10539;53.686;9.158;2023-06-01T02:51:55;13.40;99.90
20759;DHT22;10539;53.686;9.158;2023-06-01T02:54:21;13.40;99.90
20759;DHT22;10539;53.686;9.158;2023-06-01T02:56:46;13.50;99.90
20759;DHT22;10539;53.686;9.158;2023-06-01T02:59:12;13.40;99.90
20759;DHT22;10539;53.686;9.158;2023-06-01T03:01:37;13.40;99.90
20759;DHT22;10539;53.686;9.158;2023-06-01T03:04:04;13.50;99.90
20759;DHT22;10539;53.686;9.158;2023-06-01T03:06:30;13.40;99.90
20759;DHT22;10539;53.686;9.158;2023-06-01T03:09:01;13.40;99.90
20759;DHT22;10539;53.686;9.158;2023-06-01T03:11:27;13.50;99.90
20759;DHT22;10539;53.686;9.158;2023-06-01T03:13:53;13.50;99.90
20759;DHT22;10539;53.686;9.158;2023-06-01T03:16:18;13.50;99.90
20759;DHT22;10539;53.686;9.158;2023-06-01T03:18:44;13.50;99.90
20759;DHT22;10539;53.686;9.158;2023-06-01T03:21:10;13.60;99.90
20759;DHT22;10539;53.686;9.158;2023-06-01T03:23:36;13.50;99.90
20759;DHT22;10539;53.686;9.158;2023-06-01T03:26:02;13.50;99.90
20759;DHT22;10539;53.686;9.158;2023-06-01T03:28:30;13.50;99.90
20759;DHT22;10539;53.686;9.158;2023-06-01T03:30:55;13.50;99.90
20759;DHT22;10539;53.686;9.158;2023-06-01T03:33:21;13.50;99.90
20759;DHT22;10539;53.686;9.158;2023-06-01T03:35:47;13.50;99.90
20759;DHT22;10539;53.686;9.158;2023-06-01T03:38:15;13.40;99.90
20759;DHT22;10539;53.686;9.158;2023-06-01T03:40:41;13.40;99.90
20759;DHT22;10539;53.686;9.158;2023-06-01T03:43:06;13.30;99.90
20759;DHT22;10539;53.686;9.158;2023-06-01T03:45:33;13.40;99.90
20759;DHT22;10539;53.686;9.158;2023-06-01T03:47:58;13.40;99.90
20759;DHT22;10539;53.686;9.158;2023-06-01T03:50:24;13.40;99.90
20759;DHT22;10539;53.686;9.158;2023-06-01T03:52:50;13.40;99.90
20759;DHT22;10539;53.686;9.158;2023-06-01T03:55:16;13.30;99.90
20759;DHT22;10539;53.686;9.158;2023-06-01T03:57:42;13.40;99.90
20759;DHT22;10539;53.686;9.158;2023-06-01T04:00:08;13.40;99.90
20759;DHT22;10539;53.686;9.158;2023-06-01T04:02:57;13.50;99.90
20759;DHT22;10539;53.686;9.158;2023-06-01T04:05:24;13.50;99.90
20759;DHT22;10539;53.686;9.158;2023-06-01T04:07:52;13.50;99.90
20759;DHT22;10539;53.686;9.158;2023-06-01T04:10:19;13.50;99.90
20759;DHT22;10539;53.686;9.158;2023-06-01T04:12:46;13.50;99.90
20759;DHT22;10539;53.686;9.158;2023-06-01T04:15:13;13.50;99.90
20759;DHT22;10539;53.686;9.158;2023-06-01T04:17:40;13.50;99.90
20759;DHT22;10539;53.686;9.158;2023-06-01T04:20:09;13.40;99.90
20759;DHT22;10539;53.686;9.158;2023-06-01T04:22:39;13.40;99.90
20759;DHT22;10539;53.686;9.158;2023-06-01T04:25:07;13.30;99.90
20759;DHT22;10539;53.686;9.158;2023-06-01T04:27:34;13.30;99.90
20759;DHT22;10539;53.686;9.158;2023-06-01T04:30:06;13.30;99.90
20759;DHT22;10539;53.686;9.158;2023-06-01T04:32:37;13.30;99.90
20759;DHT22;10539;53.686;9.158;2023-06-01T04:35:08;13.30;99.90
20759;DHT22;10539;53.686;9.158;2023-06-01T04:37:34;13.40;99.90
20759;DHT22;10539;53.686;9.158;2023-06-01T04:40:04;13.40;99.90
20759;DHT22;10539;53.686;9.158;2023-06-01T04:42:35;13.50;99.90
20759;DHT22;10539;53.686;9.158;2023-06-01T04:45:02;13.50;99.90
20759;DHT22;10539;53.686;9.158;2023-06-01T04:47:31;13.40;99.90
20759;DHT22;10539;53.686;9.158;2023-06-01T04:49:57;13.40;99.90
20759;DHT22;10539;53.686;9.158;2023-06-01T04:52:24;13.50;99.90
20759;DHT22;10539;53.686;9.158;2023-06-01T04:54:50;13.50;99.90
20759;DHT22;10539;53.686;9.158;2023-06-01T04:57:16;13.40;99.90
20759;DHT22;10539;53.686;9.158;2023-06-01T04:59:42;13.50;99.90
20759;DHT22;10539;53.686;9.158;2023-06-01T05:02:08;13.50;99.90
20759;DHT22;10539;53.686;9.158;2023-06-01T05:04:34;13.50;99.90
20759;DHT22;10539;53.686;9.158;2023-06-01T05:07:00;13.60;99.90
20759;DHT22;10539;53.686;9.158;2023-06-01T05:09:26;13.60;99.90
20759;DHT22;10539;53.686;9.158;2023-06-01T05:11:52;13.60;99.90
20759;DHT22;10539;53.686;9.158;2023-06-01T05:14:18;13.60;99.90
20759;DHT22;10539;53.686;9.158;2023-06-01T05:16:44;13.60;99.90
20759;DHT22;10539;53.686;9.158;2023-06-01T05:19:11;13.60;99.90
20759;DHT22;10539;53.686;9.158;2023-06-01T05:21:38;13.60;99.90
20759;DHT22;10539;53.686;9.158;2023-06-01T05:24:04;13.50;99.90
20759;DHT22;10539;53.686;9.158;2023-06-01T05:26:31;13.60;99.90
20759;DHT22;10539;53.686;9.158;2023-06-01T05:28:57;13.60;99.90
20759;DHT22;10539;53.686;9.158;2023-06-01T05:31:22;13.60;99.90
20759;DHT22;10539;53.686;9.158;2023-06-01T05:33:48;13.60;99.90
20759;DHT22;10539;53.686;9.158;2023-06-01T05:36:14;13.60;99.90
20759;DHT22;10539;53.686;9.158;2023-06-01T05:38:39;13.60;99.90
20759;DHT22;10539;53.686;9.158;2023-06-01T05:41:05;13.60;99.90
20759;DHT22;10539;53.686;9.158;2023-06-01T05:43:31;13.60;99.90
20759;DHT22;10539;53.686;9.158;2023-06-01T05:46:00;13.60;99.90
20759;DHT22;10539;53.686;9.158;2023-06-01T05:48:25;13.60;99.90
20759;DHT22;10539;53.686;9.158;2023-06-01T05:50:51;13.60;99.90
20759;DHT22;10539;53.686;9.158;2023-06-01T05:53:17;13.50;99.90
20759;DHT22;10539;53.686;9.158;2023-06-01T05:55:43;13.50;99.90
20759;DHT22;10539;53.686;9.158;2023-06-01T05:58:09;13.40;99.90
20759;DHT22;10539;53.686;9.158;2023-06-01T06:00:38;13.50;99.90
20759;DHT22;10539;53.686;9.158;2023-06-01T06:03:03;13.50;99.90
20759;DHT22;10539;53.686;9.158;2023-06-01T06:05:29;13.60;99.90
20759;DHT22;10539;53.686;9.158;2023-06-01T06:07:55;13.60;99.90
20759;DHT22;10539;53.686;9.158;2023-06-01T06:10:21;13.60;99.90
20759;DHT22;10539;53.686;9.158;2023-06-01T06:12:47;13.60;99.90
20759;DHT22;10539;53.686;9.158;2023-06-01T06:15:13;13.70;99.90
20759;DHT22;10539;53.686;9.158;2023-06-01T06:17:38;13.70;99.90
20759;DHT22;10539;53.686;9.158;2023-06-01T06:20:05;13.70;99.90
20759;DHT22;10539;53.686;9.158;2023-06-01T06:22:33;13.70;99.90
20759;DHT22;10539;53.686;9.158;2023-06-01T06:24:59;13.70;99.90
20759;DHT22;10539;53.686;9.158;2023-06-01T06:27:24;13.70;99.90
20759;DHT22;10539;53.686;9.158;2023-06-01T06:29:50;13.70;99.90
20759;DHT22;10539;53.686;9.158;2023-06-01T06:32:16;13.70;99.90
20759;DHT22;10539;53.686;9.158;2023-06-01T06:34:41;13.70;99.90
20759;DHT22;10539;53.686;9.158;2023-06-01T06:37:07;13.70;99.90
20759;DHT22;10539;53.686;9.158;2023-06-01T06:39:33;13.70;99.90
20759;DHT22;10539;53.686;9.158;2023-06-01T06:42:00;13.70;99.90
20759;DHT22;10539;53.686;9.158;2023-06-01T06:44:28;13.70;99.90
20759;DHT22;10539;53.686;9.158;2023-06-01T06:46:53;13.70;99.90
20759;DHT22;10539;53.686;9.158;2023-06-01T06:49:19;13.70;99.90
20759;DHT22;10539;53.686;9.158;2023-06-01T06:51:45;13.70;99.90
20759;DHT22;10539;53.686;9.158;2023-06-01T06:54:12;13.80;99.90
20759;DHT22;10539;53.686;9.158;2023-06-01T06:56:38;13.80;99.90
20759;DHT22;10539;53.686;9.158;2023-06-01T06:59:04;13.80;99.90
20759;DHT22;10539;53.686;9.158;2023-06-01T07:01:29;13.80;99.90
20759;DHT22;10539;53.686;9.158;2023-06-01T07:03:55;13.90;99.90
20759;DHT22;10539;53.686;9.158;2023-06-01T07:06:21;13.90;99.90
20759;DHT22;10539;53.686;9.158;2023-06-01T07:08:48;13.90;99.90
20759;DHT22;10539;53.686;9.158;2023-06-01T07:11:15;13.90;99.90
20759;DHT22;10539;53.686;9.158;2023-06-01T07:13:41;13.80;99.90
20759;DHT22;10539;53.686;9.158;2023-06-01T07:16:06;13.70;99.90
20759;DHT22;10539;53.686;9.158;2023-06-01T07:18:32;13.70;99.90
20759;DHT22;10539;53.686;9.158;2023-06-01T07:20:58;13.70;99.90
20759;DHT22;10539;53.686;9.158;2023-06-01T07:23:24;13.70;99.90
20759;DHT22;10539;53.686;9.158;2023-06-01T07:25:50;13.80;99.90
20759;DHT22;10539;53.686;9.158;2023-06-01T07:28:16;13.80;99.90
20759;DHT22;10539;53.686;9.158;2023-06-01T07:30:42;13.90;99.90
20759;DHT22;10539;53.686;9.158;2023-06-01T07:33:08;14.00;99.90
20759;DHT22;10539;53.686;9.158;2023-06-01T07:35:34;14.00;99.90
20759;DHT22;10539;53.686;9.158;2023-06-01T07:38:00;14.00;99.90
20759;DHT22;10539;53.686;9.158;2023-06-01T07:40:29;14.00;99.90
20759;DHT22;10539;53.686;9.158;2023-06-01T07:42:56;14.00;99.90
20759;DHT22;10539;53.686;9.158;2023-06-01T07:45:22;14.00;99.90
20759;DHT22;10539;53.686;9.158;2023-06-01T07:47:47;13.90;99.90
20759;DHT22;10539;53.686;9.158;2023-06-01T07:50:13;13.90;99.90
20759;DHT22;10539;53.686;9.158;2023-06-01T07:52:39;13.90;99.90
20759;DHT22;10539;53.686;9.158;2023-06-01T07:55:07;14.00;99.90
20759;DHT22;10539;53.686;9.158;2023-06-01T07:57:34;14.10;99.90
20759;DHT22;10539;53.686;9.158;2023-06-01T08:00:00;14.10;99.90
20759;DHT22;10539;53.686;9.158;2023-06-01T08:02:26;14.10;99.90
20759;DHT22;10539;53.686;9.158;2023-06-01T08:04:52;14.10;99.90
20759;DHT22;10539;53.686;9.158;2023-06-01T08:07:18;14.10;99.90
20759;DHT22;10539;53.686;9.158;2023-06-01T08:09:44;14.20;99.90
20759;DHT22;10539;53.686;9.158;2023-06-01T08:12:10;14.20;99.90
20759;DHT22;10539;53.686;9.158;2023-06-01T08:14:37;14.20;99.90
20759;DHT22;10539;53.686;9.158;2023-06-01T08:17:03;14.20;99.90
20759;DHT22;10539;53.686;9.158;2023-06-01T08:19:29;14.20;99.90
20759;DHT22;10539;53.686;9.158;2023-06-01T08:21:55;14.30;99.90
20759;DHT22;10539;53.686;9.158;2023-06-01T08:24:21;14.40;99.90
20759;DHT22;10539;53.686;9.158;2023-06-01T08:26:54;14.40;99.90
20759;DHT22;10539;53.686;9.158;2023-06-01T08:29:20;14.30;99.90
20759;DHT22;10539;53.686;9.158;2023-06-01T08:31:46;14.40;99.90
20759;DHT22;10539;53.686;9.158;2023-06-01T08:34:12;14.40;99.90
20759;DHT22;10539;53.686;9.158;2023-06-01T08:36:38;14.40;99.90
20759;DHT22;10539;53.686;9.158;2023-06-01T08:39:22;14.40;99.90
20759;DHT22;10539;53.686;9.158;2023-06-01T08:44:22;14.40;99.90
20759;DHT22;10539;53.686;9.158;2023-06-01T08:46:51;14.40;99.90
20759;DHT22;10539;53.686;9.158;2023-06-01T08:49:19;14.50;99.90
20759;DHT22;10539;53.686;9.158;2023-06-01T08:51:48;14.50;99.90
20759;DHT22;10539;53.686;9.158;2023-06-01T08:54:16;14.40;99.90
20759;DHT22;10539;53.686;9.158;2023-06-01T08:56:42;14.40;99.90
20759;DHT22;10539;53.686;9.158;2023-06-01T08:59:11;14.40;99.90
20759;DHT22;10539;53.686;9.158;2023-06-01T09:01:37;14.40;99.90
20759;DHT22;10539;53.686;9.158;2023-06-01T09:04:03;14.50;99.90
20759;DHT22;10539;53.686;9.158;2023-06-01T09:06:29;14.50;99.90
20759;DHT22;10539;53.686;9.158;2023-06-01T09:08:55;14.60;99.90
20759;DHT22;10539;53.686;9.158;2023-06-01T09:11:22;14.60;99.90
20759;DHT22;10539;53.686;9.158;2023-06-01T09:13:47;14.60;99.90
20759;DHT22;10539;53.686;9.158;2023-06-01T09:16:13;14.60;99.90
20759;DHT22;10539;53.686;9.158;2023-06-01T09:18:55;14.60;99.90
20759;DHT22;10539;53.686;9.158;2023-06-01T09:21:21;14.60;99.90
20759;DHT22;10539;53.686;9.158;2023-06-01T09:23:47;14.60;99.90
20759;DHT22;10539;53.686;9.158;2023-06-01T09:26:14;14.60;99.90
20759;DHT22;10539;53.686;9.158;2023-06-01T09:31:41;14.70;99.90
20759;DHT22;10539;53.686;9.158;2023-06-01T09:34:12;14.80;99.90
20759;DHT22;10539;53.686;9.158;2023-06-01T09:36:41;14.70;99.90
20759;DHT22;10539;53.686;9.158;2023-06-01T09:39:13;14.60;99.90
20759;DHT22;10539;53.686;9.158;2023-06-01T09:41:54;14.60;99.90
20759;DHT22;10539;53.686;9.158;2023-06-01T09:44:32;14.60;99.90
20759;DHT22;10539;53.686;9.158;2023-06-01T09:47:00;14.60;99.90
20759;DHT22;10539;53.686;9.158;2023-06-01T09:49:36;14.60;99.90
20759;DHT22;10539;53.686;9.158;2023-06-01T09:54:30;14.80;99.90
20759;DHT22;10539;53.686;9.158;2023-06-01T09:56:57;14.80;99.90
20759;DHT22;10539;53.686;9.158;2023-06-01T09:59:25;14.80;99.90
20759;DHT22;10539;53.686;9.158;2023-06-01T10:01:52;14.80;99.90
20759;DHT22;10539;53.686;9.158;2023-06-01T10:04:26;14.90;99.90
20759;DHT22;10539;53.686;9.158;2023-06-01T10:06:54;15.00;99.90
20759;DHT22;10539;53.686;9.158;2023-06-01T10:09:22;15.00;99.90
20759;DHT22;10539;53.686;9.158;2023-06-01T10:11:49;15.10;99.90
20759;DHT22;10539;53.686;9.158;2023-06-01T10:14:16;15.00;99.90
20759;DHT22;10539;53.686;9.158;2023-06-01T10:16:43;15.00;99.90
20759;DHT22;10539;53.686;9.158;2023-06-01T10:19:11;15.00;99.90
20759;DHT22;10539;53.686;9.158;2023-06-01T10:21:37;14.90;99.90
20759;DHT22;10539;53.686;9.158;2023-06-01T10:24:07;14.90;99.90
20759;DHT22;10539;53.686;9.158;2023-06-01T10:29:09;14.90;99.90
20759;DHT22;10539;53.686;9.158;2023-06-01T10:31:40;14.80;99.90
20759;DHT22;10539;53.686;9.158;2023-06-01T10:34:08;14.90;99.90
20759;DHT22;10539;53.686;9.158;2023-06-01T10:39:28;15.00;99.90
20759;DHT22;10539;53.686;9.158;2023-06-01T10:41:56;15.00;99.90
20759;DHT22;10539;53.686;9.158;2023-06-01T10:52:35;15.10;99.90
20759;DHT22;10539;53.686;9.158;2023-06-01T11:05:40;15.20;99.90
20759;DHT22;10539;53.686;9.158;2023-06-01T11:10:58;15.20;99.90
20759;DHT22;10539;53.686;9.158;2023-06-01T11:13:35;15.00;99.90
20759;DHT22;10539;53.686;9.158;2023-06-01T11:21:41;15.00;99.90
20759;DHT22;10539;53.686;9.158;2023-06-01T11:24:17;14.90;99.90
20759;DHT22;10539;53.686;9.158;2023-06-01T11:26:45;14.90;99.90
20759;DHT22;10539;53.686;9.158;2023-06-01T11:31:50;15.00;99.90
20759;DHT22;10539;53.686;9.158;2023-06-01T11:34:26;15.00;99.90
20759;DHT22;10539;53.686;9.158;2023-06-01T11:36:56;15.10;99.90
20759;DHT22;10539;53.686;9.158;2023-06-01T11:39:27;15.20;99.90
20759;DHT22;10539;53.686;9.158;2023-06-01T11:42:11;15.20;99.90
20759;DHT22;10539;53.686;9.158;2023-06-01T11:44:43;15.20;99.90
20759;DHT22;10539;53.686;9.158;2023-06-01T11:47:11;15.10;99.90
20759;DHT22;10539;53.686;9.158;2023-06-01T11:49:47;15.10;99.90
20759;DHT22;10539;53.686;9.158;2023-06-01T11:52:15;15.10;99.90
20759;DHT22;10539;53.686;9.158;2023-06-01T11:54:41;15.10;99.90
20759;DHT22;10539;53.686;9.158;2023-06-01T11:57:07;15.00;99.90
20759;DHT22;10539;53.686;9.158;2023-06-01T11:59:43;15.00;99.90
20759;DHT22;10539;53.686;9.158;2023-06-01T12:02:23;15.00;99.90
20759;DHT22;10539;53.686;9.158;2023-06-01T12:05:02;15.00;99.90
20759;DHT22;10539;53.686;9.158;2023-06-01T12:07:43;15.10;99.90
20759;DHT22;10539;53.686;9.158;2023-06-01T12:10:13;15.20;99.90
20759;DHT22;10539;53.686;9.158;2023-06-01T12:12:42;15.20;99.90
20759;DHT22;10539;53.686;9.158;2023-06-01T12:15:14;15.20;99.90
20759;DHT22;10539;53.686;9.158;2023-06-01T12:20:11;15.00;99.90
20759;DHT22;10539;53.686;9.158;2023-06-01T12:22:38;14.90;99.90
20759;DHT22;10539;53.686;9.158;2023-06-01T12:25:07;14.90;99.90
20759;DHT22;10539;53.686;9.158;2023-06-01T12:27:34;14.90;99.90
20759;DHT22;10539;53.686;9.158;2023-06-01T12:30:03;15.00;99.90
20759;DHT22;10539;53.686;9.158;2023-06-01T12:32:45;15.10;99.90
20759;DHT22;10539;53.686;9.158;2023-06-01T12:35:11;15.10;99.90
20759;DHT22;10539;53.686;9.158;2023-06-01T12:37:36;15.20;99.90
20759;DHT22;10539;53.686;9.158;2023-06-01T12:40:02;15.20;99.90
20759;DHT22;10539;53.686;9.158;2023-06-01T12:42:35;15.40;99.90
20759;DHT22;10539;53.686;9.158;2023-06-01T12:45:02;15.50;99.90
20759;DHT22;10539;53.686;9.158;2023-06-01T12:47:39;15.50;99.90
20759;DHT22;10539;53.686;9.158;2023-06-01T12:50:10;15.50;99.90
20759;DHT22;10539;53.686;9.158;2023-06-01T12:52:37;15.60;99.90
20759;DHT22;10539;53.686;9.158;2023-06-01T12:55:04;15.70;99.90
20759;DHT22;10539;53.686;9.158;2023-06-01T12:57:35;15.60;99.90
20759;DHT22;10539;53.686;9.158;2023-06-01T13:00:01;15.60;99.90
20759;DHT22;10539;53.686;9.158;2023-06-01T13:02:28;15.60;99.90
20759;DHT22;10539;53.686;9.158;2023-06-01T13:04:54;15.60;99.90
20759;DHT22;10539;53.686;9.158;2023-06-01T13:07:22;15.70;99.90
20759;DHT22;10539;53.686;9.158;2023-06-01T13:09:49;15.80;99.90
20759;DHT22;10539;53.686;9.158;2023-06-01T13:12:15;15.90;99.90
20759;DHT22;10539;53.686;9.158;2023-06-01T13:14:41;16.00;99.90
20759;DHT22;10539;53.686;9.158;2023-06-01T13:17:07;15.90;99.90
20759;DHT22;10539;53.686;9.158;2023-06-01T13:19:33;15.80;99.90
20759;DHT22;10539;53.686;9.158;2023-06-01T13:21:59;15.70;99.90
20759;DHT22;10539;53.686;9.158;2023-06-01T13:24:25;15.80;99.90
20759;DHT22;10539;53.686;9.158;2023-06-01T13:26:50;15.80;99.90
20759;DHT22;10539;53.686;9.158;2023-06-01T13:29:16;15.80;99.90
20759;DHT22;10539;53.686;9.158;2023-06-01T13:31:43;15.80;99.90
20759;DHT22;10539;53.686;9.158;2023-06-01T13:34:08;15.70;99.90
20759;DHT22;10539;53.686;9.158;2023-06-01T13:36:34;15.80;99.90
20759;DHT22;10539;53.686;9.158;2023-06-01T13:39:00;15.70;99.90
20759;DHT22;10539;53.686;9.158;2023-06-01T13:41:27;15.70;99.90
20759;DHT22;10539;53.686;9.158;2023-06-01T13:43:52;15.80;99.90
20759;DHT22;10539;53.686;9.158;2023-06-01T13:46:18;15.90;99.90
20759;DHT22;10539;53.686;9.158;2023-06-01T13:48:44;16.00;99.90
20759;DHT22;10539;53.686;9.158;2023-06-01T13:51:10;16.00;99.90
20759;DHT22;10539;53.686;9.158;2023-06-01T13:53:36;16.00;99.90
20759;DHT22;10539;53.686;9.158;2023-06-01T13:56:01;16.10;99.90
20759;DHT22;10539;53.686;9.158;2023-06-01T13:58:28;16.10;99.90
20759;DHT22;10539;53.686;9.158;2023-06-01T14:00:54;16.10;99.90
20759;DHT22;10539;53.686;9.158;2023-06-01T14:03:20;16.10;99.90
20759;DHT22;10539;53.686;9.158;2023-06-01T14:05:46;16.10;99.90
20759;DHT22;10539;53.686;9.158;2023-06-01T14:08:12;16.00;99.90
20759;DHT22;10539;53.686;9.158;2023-06-01T14:10:38;15.90;99.90
20759;DHT22;10539;53.686;9.158;2023-06-01T14:13:03;15.90;99.90
20759;DHT22;10539;53.686;9.158;2023-06-01T14:15:29;16.00;99.90
20759;DHT22;10539;53.686;9.158;2023-06-01T14:17:56;16.00;99.90
20759;DHT22;10539;53.686;9.158;2023-06-01T14:20:21;16.00;99.90
20759;DHT22;10539;53.686;9.158;2023-06-01T14:22:47;16.00;99.90
20759;DHT22;10539;53.686;9.158;2023-06-01T14:25:13;16.00;99.90
20759;DHT22;10539;53.686;9.158;2023-06-01T14:27:39;16.00;99.90
20759;DHT22;10539;53.686;9.158;2023-06-01T14:30:06;16.10;99.90
20759;DHT22;10539;53.686;9.158;2023-06-01T14:32:32;16.30;99.90
20759;DHT22;10539;53.686;9.158;2023-06-01T14:34:58;16.20;99.90
20759;DHT22;10539;53.686;9.158;2023-06-01T14:37:24;16.10;99.90
20759;DHT22;10539;53.686;9.158;2023-06-01T14:39:50;16.20;99.90
20759;DHT22;10539;53.686;9.158;2023-06-01T14:42:16;16.20;99.90
20759;DHT22;10539;53.686;9.158;2023-06-01T14:44:43;16.20;99.90
20759;DHT22;10539;53.686;9.158;2023-06-01T14:47:09;16.30;99.90
20759;DHT22;10539;53.686;9.158;2023-06-01T14:49:38;16.20;99.90
20759;DHT22;10539;53.686;9.158;2023-06-01T14:52:03;16.10;99.90
20759;DHT22;10539;53.686;9.158;2023-06-01T14:54:30;16.00;99.90
20759;DHT22;10539;53.686;9.158;2023-06-01T14:56:55;16.00;99.90
20759;DHT22;10539;53.686;9.158;2023-06-01T14:59:21;16.00;99.90
20759;DHT22;10539;53.686;9.158;2023-06-01T15:01:47;16.00;99.90
20759;DHT22;10539;53.686;9.158;2023-06-01T15:04:13;16.00;99.90
20759;DHT22;10539;53.686;9.158;2023-06-01T15:06:38;16.10;99.90
20759;DHT22;10539;53.686;9.158;2023-06-01T15:09:04;16.10;99.90
20759;DHT22;10539;53.686;9.158;2023-06-01T15:11:30;16.00;99.90
20759;DHT22;10539;53.686;9.158;2023-06-01T15:13:55;15.90;99.90
20759;DHT22;10539;53.686;9.158;2023-06-01T15:16:21;15.90;99.90
20759;DHT22;10539;53.686;9.158;2023-06-01T15:18:47;15.90;99.90
20759;DHT22;10539;53.686;9.158;2023-06-01T15:21:13;15.90;99.90
20759;DHT22;10539;53.686;9.158;2023-06-01T15:23:40;15.90;99.90
20759;DHT22;10539;53.686;9.158;2023-06-01T15:26:06;15.80;99.90
20759;DHT22;10539;53.686;9.158;2023-06-01T15:28:32;15.80;99.90
20759;DHT22;10539;53.686;9.158;2023-06-01T15:30:58;15.70;99.90
20759;DHT22;10539;53.686;9.158;2023-06-01T15:33:23;15.70;99.90
20759;DHT22;10539;53.686;9.158;2023-06-01T15:35:49;15.70;99.90
20759;DHT22;10539;53.686;9.158;2023-06-01T15:38:21;15.70;99.90
20759;DHT22;10539;53.686;9.158;2023-06-01T15:40:47;15.80;99.90
20759;DHT22;10539;53.686;9.158;2023-06-01T15:43:13;15.70;99.90
20759;DHT22;10539;53.686;9.158;2023-06-01T15:45:39;15.60;99.90
20759;DHT22;10539;53.686;9.158;2023-06-01T15:48:05;15.60;99.90
20759;DHT22;10539;53.686;9.158;2023-06-01T15:50:31;15.60;99.90
20759;DHT22;10539;53.686;9.158;2023-06-01T15:53:04;15.50;99.90
20759;DHT22;10539;53.686;9.158;2023-06-01T15:55:30;15.60;99.90
20759;DHT22;10539;53.686;9.158;2023-06-01T15:57:56;15.70;99.90
20759;DHT22;10539;53.686;9.158;2023-06-01T16:00:21;15.70;99.90
20759;DHT22;10539;53.686;9.158;2023-06-01T16:02:47;15.70;99.90
20759;DHT22;10539;53.686;9.158;2023-06-01T16:05:13;15.70;99.90
20759;DHT22;10539;53.686;9.158;2023-06-01T16:07:39;15.70;99.90
20759;DHT22;10539;53.686;9.158;2023-06-01T16:10:05;15.70;99.90
20759;DHT22;10539;53.686;9.158;2023-06-01T16:12:33;15.50;99.90
20759;DHT22;10539;53.686;9.158;2023-06-01T16:14:59;15.40;99.90
20759;DHT22;10539;53.686;9.158;2023-06-01T16:17:25;15.40;99.90
20759;DHT22;10539;53.686;9.158;2023-06-01T16:19:51;15.50;99.90
20759;DHT22;10539;53.686;9.158;2023-06-01T16:22:17;15.60;99.90
20759;DHT22;10539;53.686;9.158;2023-06-01T16:24:42;15.60;99.90
20759;DHT22;10539;53.686;9.158;2023-06-01T16:27:08;15.50;99.90
20759;DHT22;10539;53.686;9.158;2023-06-01T16:29:34;15.50;99.90